createdAt,value
2018-12-21T00:21:36.152Z,85.70
2018-12-21T00:24:18.562Z,85.50
2018-12-21T00:29:52.593Z,85.20
2018-12-21T00:41:11.297Z,85.60
2018-12-21T00:59:19.765Z,85.70
2018-12-21T01:02:00.370Z,85.40
2018-12-21T01:04:40.321Z,85.70
2018-12-21T01:10:14.350Z,86.20
2018-12-21T01:15:42.028Z,86.10
2018-12-21T01:18:28.528Z,86.00
2018-12-21T01:21:12.369Z,86.10
2018-12-21T01:29:36.805Z,86.10
2018-12-21T01:35:08.155Z,85.90
2018-12-21T01:56:02.349Z,87.80
2018-12-21T02:10:04.285Z,91.80
2018-12-21T02:12:45.839Z,91.70
2018-12-21T02:15:25.618Z,91.60
2018-12-21T02:18:06.387Z,91.20
2018-12-21T02:23:39.390Z,90.90
2018-12-21T02:29:06.457Z,90.90
2018-12-21T02:40:19.631Z,91.00
2018-12-21T02:43:00.407Z,91.20
2018-12-21T02:45:41.375Z,91.30
2018-12-21T02:48:26.443Z,91.00
2018-12-21T02:51:17.448Z,90.90
2018-12-21T02:59:42.487Z,88.90
2018-12-21T03:02:26.741Z,89.10
2018-12-21T03:10:41.332Z,88.70
2018-12-21T03:19:01.655Z,88.00
2018-12-21T03:30:19.557Z,88.90
2018-12-21T03:38:45.598Z,87.80
2018-12-21T03:41:24.544Z,88.00
2018-12-21T03:44:06.524Z,88.10
2018-12-21T03:58:03.053Z,88.00
2018-12-21T04:06:23.658Z,89.40
2018-12-21T04:11:57.688Z,89.10
2018-12-21T04:17:35.605Z,89.40
2018-12-21T04:47:17.579Z,87.30
2018-12-21T04:50:01.004Z,87.20
2018-12-21T04:55:24.587Z,86.80
2018-12-21T04:58:04.740Z,86.30
2018-12-21T05:09:17.714Z,86.60
2018-12-21T05:12:01.352Z,86.60
2018-12-21T05:20:26.141Z,87.00
2018-12-21T05:33:50.633Z,87.10
2018-12-21T05:39:27.734Z,87.10
2018-12-21T05:45:04.150Z,87.30
2018-12-21T05:47:48.148Z,87.40
2018-12-21T05:53:24.752Z,87.00
2018-12-21T05:56:08.146Z,86.70
2018-12-21T06:11:27.737Z,86.60
2018-12-21T06:25:26.168Z,86.50
2018-12-21T06:28:07.767Z,86.00
2018-12-21T06:39:17.226Z,86.30
2018-12-21T06:45:03.988Z,86.10
2018-12-21T06:47:48.853Z,85.70
2018-12-21T06:50:36.788Z,85.50
2018-12-21T07:14:51.682Z,85.00
2018-12-21T07:25:59.964Z,84.70
2018-12-21T07:28:45.312Z,84.60
2018-12-21T07:42:48.794Z,84.10
2018-12-21T08:53:54.705Z,85.00
2018-12-21T08:56:29.754Z,85.20
2018-12-21T08:59:07.679Z,84.90
2018-12-21T09:01:52.881Z,84.70
2018-12-21T09:04:33.568Z,84.80
2018-12-21T09:07:14.191Z,84.70
2018-12-21T09:09:56.902Z,84.10
2018-12-21T09:12:34.300Z,84.20
2018-12-21T09:15:14.380Z,84.40
2018-12-21T09:17:58.684Z,84.30
2018-12-21T09:20:40.955Z,83.90
2018-12-21T09:23:21.989Z,83.90
2018-12-21T09:26:01.057Z,83.70
2018-12-21T09:28:42.679Z,84.10
2018-12-21T09:31:20.522Z,83.80
2018-12-21T09:33:57.036Z,82.70
2018-12-21T09:36:30.020Z,82.00
2018-12-21T09:39:15.579Z,81.90
2018-12-21T09:41:53.476Z,81.20
2018-12-21T09:44:32.445Z,81.10
2018-12-21T09:47:07.493Z,80.80
2018-12-21T09:49:47.730Z,80.40
2018-12-21T09:52:23.197Z,79.10
2018-12-21T09:55:04.249Z,78.30
2018-12-21T09:57:39.320Z,79.70
2018-12-21T10:00:25.721Z,80.20
2018-12-21T10:03:01.822Z,78.60
2018-12-21T10:05:39.340Z,80.70
2018-12-21T10:08:14.746Z,77.20
2018-12-21T10:10:51.623Z,77.10
2018-12-21T10:13:25.106Z,76.70
2018-12-21T10:16:04.345Z,78.10
2018-12-21T10:22:01.222Z,78.80
2018-12-21T10:24:42.577Z,77.90
2018-12-21T10:27:17.660Z,77.50
2018-12-21T10:29:58.426Z,77.50
2018-12-21T10:32:32.885Z,78.50
2018-12-21T10:35:06.882Z,77.70
2018-12-21T10:37:46.359Z,77.90
2018-12-21T10:40:29.849Z,79.00
2018-12-21T10:43:12.964Z,77.60
2018-12-21T10:45:48.479Z,77.60
2018-12-21T10:48:25.050Z,78.00
2018-12-21T10:50:58.475Z,78.50
2018-12-21T10:53:36.620Z,78.90
2018-12-21T10:56:11.358Z,77.60
2018-12-21T10:58:52.225Z,78.00
2018-12-21T11:01:27.076Z,78.40
2018-12-21T11:04:07.400Z,78.60
2018-12-21T11:06:44.216Z,78.30
2018-12-21T11:09:20.809Z,78.30
2018-12-21T11:11:59.456Z,78.60
2018-12-21T11:14:35.265Z,79.00
2018-12-21T11:17:22.285Z,78.20
2018-12-21T11:20:09.134Z,78.60
2018-12-21T11:22:45.529Z,78.80
2018-12-21T11:25:22.355Z,78.80
2018-12-21T11:27:57.786Z,78.80
2018-12-21T11:30:33.799Z,78.50
2018-12-21T11:33:15.513Z,78.30
2018-12-21T11:35:59.562Z,79.00
2018-12-21T11:38:51.486Z,78.70
2018-12-21T11:41:36.949Z,79.30
2018-12-21T11:44:27.015Z,79.40
2018-12-21T11:49:52.245Z,79.40
2018-12-21T11:55:27.211Z,80.40
2018-12-21T11:58:03.005Z,80.10
2018-12-21T12:00:46.058Z,80.90
2018-12-21T12:03:24.268Z,80.80
2018-12-21T12:09:06.693Z,81.30
2018-12-21T12:11:49.244Z,81.90
2018-12-21T12:14:36.976Z,82.60
2018-12-21T12:17:27.279Z,82.60
2018-12-21T12:20:03.022Z,82.20
2018-12-21T12:22:43.223Z,82.60
2018-12-21T12:25:21.374Z,83.20
2018-12-21T12:28:06.176Z,82.80
2018-12-21T12:30:52.759Z,83.50
2018-12-21T12:33:33.925Z,83.10
2018-12-21T12:36:17.260Z,82.90
2018-12-21T12:38:54.880Z,83.60
2018-12-21T12:41:41.353Z,83.30
2018-12-21T12:44:28.711Z,83.60
2018-12-21T12:50:03.557Z,83.00
2018-12-21T12:52:42.676Z,82.30
2018-12-21T12:55:28.898Z,81.60
2018-12-21T12:58:12.244Z,82.10
2018-12-21T13:00:54.429Z,81.80
2018-12-21T13:03:38.187Z,83.30
2018-12-21T13:06:19.753Z,82.70
2018-12-21T13:08:54.591Z,83.00
2018-12-21T13:11:39.897Z,84.30
2018-12-21T13:14:18.785Z,84.50
2018-12-21T13:17:08.407Z,84.30
2018-12-21T13:22:29.962Z,85.90
2018-12-21T13:25:13.772Z,86.10
2018-12-21T13:27:56.787Z,86.50
2018-12-21T13:30:36.427Z,86.80
2018-12-21T13:33:22.309Z,87.00
2018-12-21T13:35:59.641Z,87.20
2018-12-21T13:38:46.619Z,87.60
2018-12-21T13:41:29.752Z,87.90
2018-12-21T13:44:19.860Z,87.90
2018-12-21T13:47:05.968Z,88.50
2018-12-21T13:49:58.269Z,88.80
2018-12-21T13:52:43.638Z,89.00
2018-12-21T13:55:20.488Z,89.30
2018-12-21T13:57:58.700Z,89.30
2018-12-21T14:03:28.866Z,89.50
2018-12-21T14:06:08.494Z,89.70
2018-12-21T14:08:53.111Z,90.10
2018-12-21T14:11:36.084Z,89.70
2018-12-21T14:14:12.630Z,89.80
2018-12-21T14:16:53.413Z,89.90
2018-12-21T14:19:45.845Z,90.00
2018-12-21T14:22:20.931Z,90.40
2018-12-21T14:24:58.358Z,90.70
2018-12-21T14:27:38.163Z,91.10
2018-12-21T14:30:17.876Z,91.00
2018-12-21T14:33:04.284Z,90.90
2018-12-21T14:35:40.072Z,91.00
2018-12-21T14:38:16.241Z,90.70
2018-12-21T14:40:53.782Z,90.70
2018-12-21T14:43:30.976Z,90.90
2018-12-21T14:46:08.013Z,91.30
2018-12-21T14:48:47.306Z,91.50
2018-12-21T14:51:22.668Z,91.80
2018-12-21T14:54:01.523Z,92.00
2018-12-21T14:56:36.178Z,92.30
2018-12-21T14:59:10.806Z,92.60
2018-12-21T15:01:48.183Z,92.70
2018-12-21T15:04:23.280Z,92.80
2018-12-21T15:06:59.849Z,92.30
2018-12-21T15:09:36.253Z,92.40
2018-12-21T15:12:15.642Z,92.60
2018-12-21T15:15:02.589Z,92.80
2018-12-21T15:17:38.931Z,93.00
2018-12-21T15:20:18.293Z,93.00
2018-12-21T15:22:56.869Z,92.90
2018-12-21T15:25:31.100Z,92.50
2018-12-21T15:28:12.085Z,93.10
2018-12-21T15:30:56.541Z,93.00
2018-12-21T15:33:32.645Z,92.80
2018-12-21T15:36:10.210Z,93.20
2018-12-21T15:38:52.245Z,93.10
2018-12-21T15:41:30.786Z,93.20
2018-12-21T15:44:06.855Z,93.40
2018-12-21T15:46:55.208Z,93.70
2018-12-21T15:49:38.034Z,93.90
2018-12-21T15:52:16.964Z,93.90
2018-12-21T15:54:59.843Z,93.90
2018-12-21T15:57:42.020Z,93.90
2018-12-21T16:00:17.203Z,93.90
2018-12-21T16:02:54.880Z,95.40
2018-12-21T16:05:31.064Z,95.80
2018-12-21T16:08:08.974Z,96.00
2018-12-21T16:10:41.969Z,96.10
2018-12-21T16:13:21.973Z,96.10
2018-12-21T16:15:56.674Z,96.30
2018-12-21T16:18:36.501Z,96.20
2018-12-21T16:21:13.581Z,96.40
2018-12-21T16:23:51.385Z,96.40
2018-12-21T16:26:29.611Z,96.60
2018-12-21T16:29:05.176Z,97.00
2018-12-21T16:31:40.971Z,97.10
2018-12-21T16:34:17.512Z,97.40
2018-12-21T16:36:53.429Z,97.50
2018-12-21T16:39:34.293Z,97.30
2018-12-21T16:42:14.286Z,97.30
2018-12-21T16:44:48.798Z,97.40
2018-12-21T16:47:23.837Z,96.90
2018-12-21T16:49:57.249Z,96.80
2018-12-21T16:52:35.424Z,97.10
2018-12-21T16:55:15.390Z,96.90
2018-12-21T16:58:00.529Z,96.70
2018-12-21T17:00:33.469Z,96.70
2018-12-21T17:03:15.629Z,96.90
2018-12-21T17:05:43.829Z,96.70
2018-12-21T17:08:28.654Z,96.50
2018-12-21T17:11:04.830Z,96.30
2018-12-21T17:13:37.518Z,96.40
2018-12-21T17:16:11.877Z,96.30
2018-12-21T17:18:46.522Z,96.40
2018-12-21T17:21:23.635Z,96.10
2018-12-21T17:24:11.466Z,96.00
2018-12-21T17:26:46.254Z,95.30
2018-12-21T17:29:19.994Z,95.00
2018-12-21T17:31:53.267Z,95.10
2018-12-21T17:34:26.253Z,95.20
2018-12-21T17:36:59.491Z,95.20
2018-12-21T17:39:34.795Z,95.20
2018-12-21T17:42:10.439Z,95.30
2018-12-21T17:44:44.193Z,95.20
2018-12-21T17:47:17.016Z,95.40
2018-12-21T17:49:53.332Z,95.10
2018-12-21T17:52:26.033Z,95.00
2018-12-21T17:55:07.507Z,94.80
2018-12-21T17:57:42.045Z,95.10
2018-12-21T18:00:20.415Z,95.50
2018-12-21T18:02:56.474Z,95.60
2018-12-21T18:05:32.409Z,96.10
2018-12-21T18:08:05.431Z,96.70
2018-12-21T18:10:40.106Z,97.30
2018-12-21T18:13:20.394Z,97.30
2018-12-21T18:15:58.146Z,97.40
2018-12-21T18:18:37.621Z,97.50
2018-12-21T18:21:15.945Z,97.70
2018-12-21T18:23:52.306Z,97.70
2018-12-21T18:26:28.833Z,97.70
2018-12-21T18:29:02.151Z,97.70
2018-12-21T18:31:53.994Z,97.70
2018-12-21T18:34:34.509Z,97.70
2018-12-21T18:37:19.707Z,97.70
2018-12-21T18:39:54.154Z,97.70
2018-12-21T18:42:34.117Z,97.70
2018-12-21T18:45:08.901Z,97.70
2018-12-21T18:47:42.746Z,97.70
2018-12-21T18:50:20.615Z,97.70
2018-12-21T18:52:56.538Z,97.70
2018-12-21T18:55:37.556Z,97.70
2018-12-21T18:58:13.455Z,97.70
2018-12-21T19:00:46.768Z,97.70
2018-12-21T19:03:23.306Z,97.70
2018-12-21T19:05:58.279Z,97.70
2018-12-21T19:08:32.188Z,97.70
2018-12-21T19:13:52.539Z,97.70
2018-12-21T19:16:30.081Z,97.70
2018-12-21T19:19:17.658Z,97.70
2018-12-21T19:21:55.016Z,97.70
2018-12-21T19:24:30.061Z,97.70
2018-12-21T19:27:05.993Z,97.70
2018-12-21T19:32:40.758Z,97.70
2018-12-21T19:35:30.287Z,97.70
2018-12-21T19:38:11.698Z,97.70
2018-12-21T19:43:42.846Z,97.70
2018-12-21T19:46:24.440Z,97.70
2018-12-21T19:49:09.507Z,97.70
2018-12-21T19:51:43.145Z,97.70
2018-12-21T19:54:23.772Z,97.70
2018-12-21T19:57:13.235Z,97.70
2018-12-21T20:00:08.519Z,97.70
2018-12-21T20:02:51.564Z,97.70
2018-12-21T20:05:28.532Z,97.70
2018-12-21T20:08:02.382Z,97.70
2018-12-21T20:10:42.120Z,97.70
2018-12-21T20:13:20.933Z,97.70
2018-12-21T20:18:42.082Z,97.70
2018-12-21T20:21:25.710Z,97.70
2018-12-21T20:24:05.488Z,97.70
2018-12-21T20:26:57.580Z,97.70
2018-12-21T20:29:58.682Z,97.70
2018-12-21T20:32:39.152Z,97.70
2018-12-21T20:35:29.608Z,97.70
2018-12-21T20:38:09.957Z,97.70
2018-12-21T20:41:36.840Z,97.70
2018-12-21T20:44:13.224Z,97.70
2018-12-21T20:46:50.605Z,97.70
2018-12-21T20:49:34.679Z,97.70
2018-12-21T20:52:16.150Z,97.70
2018-12-21T20:54:55.490Z,97.70
2018-12-21T20:57:38.625Z,97.70
2018-12-21T21:00:27.104Z,97.70
2018-12-21T21:03:04.010Z,97.70
2018-12-21T21:05:50.139Z,97.70
2018-12-21T21:08:39.638Z,97.70
2018-12-21T21:11:25.053Z,97.70
2018-12-21T21:14:06.012Z,97.70
2018-12-21T21:16:49.836Z,97.70
2018-12-21T21:19:35.410Z,97.70
2018-12-21T21:22:29.499Z,97.70
2018-12-21T21:25:13.963Z,97.70
2018-12-21T21:27:51.340Z,97.70
2018-12-21T21:30:33.942Z,97.70
2018-12-21T21:33:22.783Z,97.70
2018-12-21T21:36:01.945Z,97.70
2018-12-21T21:38:38.197Z,97.70
2018-12-21T21:44:12.481Z,97.70
2018-12-21T21:46:56.301Z,97.70
2018-12-21T21:49:47.549Z,97.70
2018-12-21T21:52:40.068Z,97.70
2018-12-21T21:55:26.090Z,97.70
2018-12-21T21:58:02.518Z,97.70
2018-12-21T22:00:48.324Z,97.70
2018-12-21T22:03:34.953Z,97.70
2018-12-21T22:06:15.682Z,97.70
2018-12-21T22:08:53.282Z,97.70
2018-12-21T22:14:26.321Z,97.40
2018-12-21T22:17:08.128Z,96.90
2018-12-21T22:19:47.998Z,96.60
2018-12-21T22:22:30.511Z,96.30
2018-12-21T22:25:10.630Z,95.50
2018-12-21T22:27:54.406Z,95.20
2018-12-21T22:30:31.020Z,95.40
2018-12-21T22:33:05.389Z,94.70
2018-12-21T22:35:38.351Z,94.50
2018-12-21T22:38:13.585Z,94.10
2018-12-21T22:40:52.771Z,93.30
2018-12-21T22:43:32.756Z,92.60
2018-12-21T22:46:13.777Z,92.80
2018-12-21T22:48:49.611Z,92.70
2018-12-21T22:51:25.663Z,92.50
2018-12-21T22:54:00.337Z,92.40
2018-12-21T22:56:40.216Z,92.70
2018-12-21T22:59:14.995Z,92.70
2018-12-21T23:01:54.783Z,92.60
2018-12-21T23:04:36.033Z,92.50
2018-12-21T23:07:15.728Z,93.00
2018-12-21T23:10:01.046Z,93.00
2018-12-21T23:12:41.344Z,93.00
2018-12-21T23:15:20.196Z,92.90
2018-12-21T23:18:01.870Z,92.90
2018-12-21T23:20:40.706Z,92.40
2018-12-21T23:23:16.489Z,92.30
2018-12-21T23:25:51.549Z,92.40
2018-12-21T23:28:26.604Z,92.50
2018-12-21T23:31:02.051Z,93.00
2018-12-21T23:33:39.426Z,93.00
2018-12-21T23:36:14.462Z,93.00
2018-12-21T23:38:50.596Z,93.30
2018-12-21T23:41:29.053Z,93.40
2018-12-21T23:44:07.625Z,93.40
2018-12-21T23:46:47.567Z,93.50
2018-12-21T23:49:26.009Z,93.50
2018-12-21T23:52:11.197Z,93.30
2018-12-21T23:54:51.145Z,93.40
2018-12-21T23:57:26.660Z,93.40
